sensor_id;sensor_type;location;lat;lon;timestamp;temperature;humidity
28171;DHT22;15458;53.346;-1.688;2023-08-01T00:00:35;14.20;99.90
28171;DHT22;15458;53.346;-1.688;2023-08-01T00:03:04;14.10;99.90
28171;DHT22;15458;53.346;-1.688;2023-08-01T00:05:30;14.10;99.90
28171;DHT22;15458;53.346;-1.688;2023-08-01T00:07:55;14.10;99.90
28171;DHT22;15458;53.346;-1.688;2023-08-01T00:10:21;14.10;99.90
28171;DHT22;15458;53.346;-1.688;2023-08-01T00:12:49;14.10;99.90
28171;DHT22;15458;53.346;-1.688;2023-08-01T00:15:15;14.10;99.90
28171;DHT22;15458;53.346;-1.688;2023-08-01T00:17:41;14.10;99.90
28171;DHT22;15458;53.346;-1.688;2023-08-01T00:20:13;14.10;99.90
28171;DHT22;15458;53.346;-1.688;2023-08-01T00:22:41;14.10;99.90
28171;DHT22;15458;53.346;-1.688;2023-08-01T00:25:07;14.20;99.90
28171;DHT22;15458;53.346;-1.688;2023-08-01T00:27:40;14.10;99.90
28171;DHT22;15458;53.346;-1.688;2023-08-01T00:30:12;14.10;99.90
28171;DHT22;15458;53.346;-1.688;2023-08-01T00:32:38;14.10;99.90
28171;DHT22;15458;53.346;-1.688;2023-08-01T00:35:05;14.10;99.90
28171;DHT22;15458;53.346;-1.688;2023-08-01T00:37:31;14.10;99.90
28171;DHT22;15458;53.346;-1.688;2023-08-01T00:39:59;14.10;99.90
28171;DHT22;15458;53.346;-1.688;2023-08-01T00:42:25;14.10;99.90
28171;DHT22;15458;53.346;-1.688;2023-08-01T00:44:50;14.10;99.90
28171;DHT22;15458;53.346;-1.688;2023-08-01T00:47:16;14.20;99.90
28171;DHT22;15458;53.346;-1.688;2023-08-01T00:49:49;14.20;99.90
28171;DHT22;15458;53.346;-1.688;2023-08-01T00:52:18;14.10;99.90
28171;DHT22;15458;53.346;-1.688;2023-08-01T00:54:47;14.20;99.90
28171;DHT22;15458;53.346;-1.688;2023-08-01T00:57:21;14.20;99.90
28171;DHT22;15458;53.346;-1.688;2023-08-01T00:59:47;14.20;99.90
28171;DHT22;15458;53.346;-1.688;2023-08-01T01:02:12;14.20;99.90
28171;DHT22;15458;53.346;-1.688;2023-08-01T01:04:38;14.20;99.90
28171;DHT22;15458;53.346;-1.688;2023-08-01T01:07:06;14.20;99.90
28171;DHT22;15458;53.346;-1.688;2023-08-01T01:09:32;14.20;99.90
28171;DHT22;15458;53.346;-1.688;2023-08-01T01:11:59;14.20;99.90
28171;DHT22;15458;53.346;-1.688;2023-08-01T01:14:28;14.20;99.90
28171;DHT22;15458;53.346;-1.688;2023-08-01T01:16:54;14.20;99.90
28171;DHT22;15458;53.346;-1.688;2023-08-01T01:19:20;14.20;99.90
28171;DHT22;15458;53.346;-1.688;2023-08-01T01:21:46;14.20;99.90
28171;DHT22;15458;53.346;-1.688;2023-08-01T01:24:14;14.20;99.90
28171;DHT22;15458;53.346;-1.688;2023-08-01T01:26:42;14.20;99.90
28171;DHT22;15458;53.346;-1.688;2023-08-01T01:29:09;14.20;99.90
28171;DHT22;15458;53.346;-1.688;2023-08-01T01:31:36;14.20;99.90
28171;DHT22;15458;53.346;-1.688;2023-08-01T01:34:02;14.10;99.90
28171;DHT22;15458;53.346;-1.688;2023-08-01T01:36:28;14.10;99.90
28171;DHT22;15458;53.346;-1.688;2023-08-01T01:38:54;14.10;99.90
28171;DHT22;15458;53.346;-1.688;2023-08-01T01:41:20;14.10;99.90
28171;DHT22;15458;53.346;-1.688;2023-08-01T01:43:46;14.10;99.90
28171;DHT22;15458;53.346;-1.688;2023-08-01T01:46:11;14.00;99.90
28171;DHT22;15458;53.346;-1.688;2023-08-01T01:48:37;14.10;99.90
28171;DHT22;15458;53.346;-1.688;2023-08-01T01:51:04;14.10;99.90
28171;DHT22;15458;53.346;-1.688;2023-08-01T01:53:29;14.10;99.90
28171;DHT22;15458;53.346;-1.688;2023-08-01T01:55:55;14.00;99.90
28171;DHT22;15458;53.346;-1.688;2023-08-01T01:58:20;14.00;99.90
28171;DHT22;15458;53.346;-1.688;2023-08-01T02:00:46;14.00;99.90
28171;DHT22;15458;53.346;-1.688;2023-08-01T02:03:12;14.00;99.90
28171;DHT22;15458;53.346;-1.688;2023-08-01T02:05:40;14.00;99.90
28171;DHT22;15458;53.346;-1.688;2023-08-01T02:08:06;14.00;99.90
28171;DHT22;15458;53.346;-1.688;2023-08-01T02:10:32;14.00;99.90
28171;DHT22;15458;53.346;-1.688;2023-08-01T02:12:57;14.00;99.90
28171;DHT22;15458;53.346;-1.688;2023-08-01T02:15:23;14.00;99.90
28171;DHT22;15458;53.346;-1.688;2023-08-01T02:17:49;14.00;99.90
28171;DHT22;15458;53.346;-1.688;2023-08-01T02:20:15;14.00;99.90
28171;DHT22;15458;53.346;-1.688;2023-08-01T02:22:42;14.00;99.90
28171;DHT22;15458;53.346;-1.688;2023-08-01T02:25:08;14.00;99.90
28171;DHT22;15458;53.346;-1.688;2023-08-01T02:27:35;14.00;99.90
28171;DHT22;15458;53.346;-1.688;2023-08-01T02:30:00;14.10;99.90
28171;DHT22;15458;53.346;-1.688;2023-08-01T02:32:26;14.00;99.90
28171;DHT22;15458;53.346;-1.688;2023-08-01T02:34:52;14.00;99.90
28171;DHT22;15458;53.346;-1.688;2023-08-01T02:37:17;14.00;99.90
28171;DHT22;15458;53.346;-1.688;2023-08-01T02:39:43;14.00;99.90
28171;DHT22;15458;53.346;-1.688;2023-08-01T02:42:09;14.00;99.90
28171;DHT22;15458;53.346;-1.688;2023-08-01T02:44:34;14.10;99.90
28171;DHT22;15458;53.346;-1.688;2023-08-01T02:47:00;14.00;99.90
28171;DHT22;15458;53.346;-1.688;2023-08-01T02:49:26;14.00;99.90
28171;DHT22;15458;53.346;-1.688;2023-08-01T02:51:51;14.00;99.90
28171;DHT22;15458;53.346;-1.688;2023-08-01T02:54:17;14.00;99.90
28171;DHT22;15458;53.346;-1.688;2023-08-01T02:56:42;14.00;99.90
28171;DHT22;15458;53.346;-1.688;2023-08-01T02:59:08;14.00;99.90
28171;DHT22;15458;53.346;-1.688;2023-08-01T03:01:35;13.90;99.90
28171;DHT22;15458;53.346;-1.688;2023-08-01T03:04:05;13.90;99.90
28171;DHT22;15458;53.346;-1.688;2023-08-01T03:06:32;13.90;99.90
28171;DHT22;15458;53.346;-1.688;2023-08-01T03:08:58;13.90;99.90
28171;DHT22;15458;53.346;-1.688;2023-08-01T03:11:24;13.90;99.90
28171;DHT22;15458;53.346;-1.688;2023-08-01T03:13:50;13.90;99.90
28171;DHT22;15458;53.346;-1.688;2023-08-01T03:16:17;13.90;99.90
28171;DHT22;15458;53.346;-1.688;2023-08-01T03:18:43;13.90;99.90
28171;DHT22;15458;53.346;-1.688;2023-08-01T03:21:09;13.90;99.90
28171;DHT22;15458;53.346;-1.688;2023-08-01T03:23:35;13.90;99.90
28171;DHT22;15458;53.346;-1.688;2023-08-01T03:26:01;13.90;99.90
28171;DHT22;15458;53.346;-1.688;2023-08-01T03:28:26;13.90;99.90
28171;DHT22;15458;53.346;-1.688;2023-08-01T03:30:52;13.90;99.90
28171;DHT22;15458;53.346;-1.688;2023-08-01T03:33:20;13.90;99.90
28171;DHT22;15458;53.346;-1.688;2023-08-01T03:35:45;13.90;99.90
28171;DHT22;15458;53.346;-1.688;2023-08-01T03:38:11;13.90;99.90
28171;DHT22;15458;53.346;-1.688;2023-08-01T03:40:37;13.90;99.90
28171;DHT22;15458;53.346;-1.688;2023-08-01T03:43:02;13.90;99.90
28171;DHT22;15458;53.346;-1.688;2023-08-01T03:45:28;13.90;99.90
28171;DHT22;15458;53.346;-1.688;2023-08-01T03:47:54;13.80;99.90
28171;DHT22;15458;53.346;-1.688;2023-08-01T03:50:20;13.80;99.90
28171;DHT22;15458;53.346;-1.688;2023-08-01T03:52:46;13.80;99.90
28171;DHT22;15458;53.346;-1.688;2023-08-01T03:55:12;13.80;99.90
28171;DHT22;15458;53.346;-1.688;2023-08-01T03:57:37;13.80;99.90
28171;DHT22;15458;53.346;-1.688;2023-08-01T04:00:06;13.80;99.90
28171;DHT22;15458;53.346;-1.688;2023-08-01T04:02:31;13.80;99.90
28171;DHT22;15458;53.346;-1.688;2023-08-01T04:04:57;13.80;99.90
28171;DHT22;15458;53.346;-1.688;2023-08-01T04:07:23;13.80;99.90
28171;DHT22;15458;53.346;-1.688;2023-08-01T04:09:48;13.80;99.90
28171;DHT22;15458;53.346;-1.688;2023-08-01T04:12:15;13.80;99.90
28171;DHT22;15458;53.346;-1.688;2023-08-01T04:14:40;13.80;99.90
28171;DHT22;15458;53.346;-1.688;2023-08-01T04:17:06;13.70;99.90
28171;DHT22;15458;53.346;-1.688;2023-08-01T04:19:33;13.70;99.90
28171;DHT22;15458;53.346;-1.688;2023-08-01T04:21:59;13.70;99.90
28171;DHT22;15458;53.346;-1.688;2023-08-01T04:24:24;13.60;99.90
28171;DHT22;15458;53.346;-1.688;2023-08-01T04:26:55;13.60;99.90
28171;DHT22;15458;53.346;-1.688;2023-08-01T04:29:21;13.60;99.90
28171;DHT22;15458;53.346;-1.688;2023-08-01T04:31:47;13.60;99.90
28171;DHT22;15458;53.346;-1.688;2023-08-01T04:34:13;13.60;99.90
28171;DHT22;15458;53.346;-1.688;2023-08-01T04:36:39;13.60;99.90
28171;DHT22;15458;53.346;-1.688;2023-08-01T04:39:04;13.60;99.90
28171;DHT22;15458;53.346;-1.688;2023-08-01T04:41:31;13.60;99.90
28171;DHT22;15458;53.346;-1.688;2023-08-01T04:43:56;13.60;99.90
28171;DHT22;15458;53.346;-1.688;2023-08-01T04:46:22;13.60;99.90
28171;DHT22;15458;53.346;-1.688;2023-08-01T04:48:50;13.60;99.90
28171;DHT22;15458;53.346;-1.688;2023-08-01T04:51:16;13.60;99.90
28171;DHT22;15458;53.346;-1.688;2023-08-01T04:53:41;13.50;99.90
28171;DHT22;15458;53.346;-1.688;2023-08-01T04:56:07;13.60;99.90
28171;DHT22;15458;53.346;-1.688;2023-08-01T04:58:33;13.60;99.90
28171;DHT22;15458;53.346;-1.688;2023-08-01T05:00:58;13.50;99.90
28171;DHT22;15458;53.346;-1.688;2023-08-01T05:03:24;13.50;99.90
28171;DHT22;15458;53.346;-1.688;2023-08-01T05:05:51;13.50;99.90
28171;DHT22;15458;53.346;-1.688;2023-08-01T05:08:16;13.50;99.90
28171;DHT22;15458;53.346;-1.688;2023-08-01T05:10:42;13.50;99.90
28171;DHT22;15458;53.346;-1.688;2023-08-01T05:13:07;13.50;99.90
28171;DHT22;15458;53.346;-1.688;2023-08-01T05:15:33;13.50;99.90
28171;DHT22;15458;53.346;-1.688;2023-08-01T05:17:58;13.50;99.90
28171;DHT22;15458;53.346;-1.688;2023-08-01T05:20:24;13.50;99.90
28171;DHT22;15458;53.346;-1.688;2023-08-01T05:22:57;13.50;99.90
28171;DHT22;15458;53.346;-1.688;2023-08-01T05:25:22;13.50;99.90
28171;DHT22;15458;53.346;-1.688;2023-08-01T05:27:48;13.40;99.90
28171;DHT22;15458;53.346;-1.688;2023-08-01T05:30:14;13.50;99.90
28171;DHT22;15458;53.346;-1.688;2023-08-01T05:32:39;13.50;99.90
28171;DHT22;15458;53.346;-1.688;2023-08-01T05:35:06;13.50;99.90
28171;DHT22;15458;53.346;-1.688;2023-08-01T05:37:33;13.50;99.90
28171;DHT22;15458;53.346;-1.688;2023-08-01T05:39:59;13.40;99.90
28171;DHT22;15458;53.346;-1.688;2023-08-01T05:42:24;13.50;99.90
28171;DHT22;15458;53.346;-1.688;2023-08-01T05:44:50;13.40;99.90
28171;DHT22;15458;53.346;-1.688;2023-08-01T05:47:16;13.40;99.90
28171;DHT22;15458;53.346;-1.688;2023-08-01T05:49:41;13.40;99.90
28171;DHT22;15458;53.346;-1.688;2023-08-01T05:52:07;13.40;99.90
28171;DHT22;15458;53.346;-1.688;2023-08-01T05:54:33;13.40;99.90
28171;DHT22;15458;53.346;-1.688;2023-08-01T05:56:58;13.40;99.90
28171;DHT22;15458;53.346;-1.688;2023-08-01T05:59:24;13.40;99.90
28171;DHT22;15458;53.346;-1.688;2023-08-01T06:01:51;13.40;99.90
28171;DHT22;15458;53.346;-1.688;2023-08-01T06:04:17;13.40;99.90
28171;DHT22;15458;53.346;-1.688;2023-08-01T06:06:43;13.40;99.90
28171;DHT22;15458;53.346;-1.688;2023-08-01T06:09:09;13.40;99.90
28171;DHT22;15458;53.346;-1.688;2023-08-01T06:11:34;13.50;99.90
28171;DHT22;15458;53.346;-1.688;2023-08-01T06:14:00;13.50;99.90
28171;DHT22;15458;53.346;-1.688;2023-08-01T06:16:26;13.50;99.90
28171;DHT22;15458;53.346;-1.688;2023-08-01T06:18:53;13.50;99.90
28171;DHT22;15458;53.346;-1.688;2023-08-01T06:21:22;13.50;99.90
28171;DHT22;15458;53.346;-1.688;2023-08-01T06:23:48;13.60;99.90
28171;DHT22;15458;53.346;-1.688;2023-08-01T06:26:13;13.60;99.90
28171;DHT22;15458;53.346;-1.688;2023-08-01T06:28:41;13.60;99.90
28171;DHT22;15458;53.346;-1.688;2023-08-01T06:31:06;13.60;99.90
28171;DHT22;15458;53.346;-1.688;2023-08-01T06:33:32;13.60;99.90
28171;DHT22;15458;53.346;-1.688;2023-08-01T06:35:58;13.70;99.90
28171;DHT22;15458;53.346;-1.688;2023-08-01T06:38:23;13.70;99.90
28171;DHT22;15458;53.346;-1.688;2023-08-01T06:40:49;13.70;99.90
28171;DHT22;15458;53.346;-1.688;2023-08-01T06:43:15;13.70;99.90
28171;DHT22;15458;53.346;-1.688;2023-08-01T06:45:40;13.80;99.90
28171;DHT22;15458;53.346;-1.688;2023-08-01T06:48:06;13.70;99.90
28171;DHT22;15458;53.346;-1.688;2023-08-01T06:50:32;13.80;99.90
28171;DHT22;15458;53.346;-1.688;2023-08-01T06:52:57;13.80;99.90
28171;DHT22;15458;53.346;-1.688;2023-08-01T06:55:23;13.80;99.90
28171;DHT22;15458;53.346;-1.688;2023-08-01T06:57:48;13.80;99.90
28171;DHT22;15458;53.346;-1.688;2023-08-01T07:00:14;13.80;99.90
28171;DHT22;15458;53.346;-1.688;2023-08-01T07:02:40;13.80;99.90
28171;DHT22;15458;53.346;-1.688;2023-08-01T07:05:06;13.80;99.90
28171;DHT22;15458;53.346;-1.688;2023-08-01T07:07:31;13.80;99.90
28171;DHT22;15458;53.346;-1.688;2023-08-01T07:09:57;13.80;99.90
28171;DHT22;15458;53.346;-1.688;2023-08-01T07:12:22;13.70;99.90
28171;DHT22;15458;53.346;-1.688;2023-08-01T07:14:48;13.70;99.90
28171;DHT22;15458;53.346;-1.688;2023-08-01T07:17:14;13.70;99.90
28171;DHT22;15458;53.346;-1.688;2023-08-01T07:19:39;13.70;99.90
28171;DHT22;15458;53.346;-1.688;2023-08-01T07:22:05;13.70;99.90
28171;DHT22;15458;53.346;-1.688;2023-08-01T07:24:31;13.70;99.90
28171;DHT22;15458;53.346;-1.688;2023-08-01T07:26:56;13.70;99.90
28171;DHT22;15458;53.346;-1.688;2023-08-01T07:29:22;13.70;99.90
28171;DHT22;15458;53.346;-1.688;2023-08-01T07:31:47;13.70;99.90
28171;DHT22;15458;53.346;-1.688;2023-08-01T07:34:13;13.70;99.90
28171;DHT22;15458;53.346;-1.688;2023-08-01T07:36:39;13.80;99.90
28171;DHT22;15458;53.346;-1.688;2023-08-01T07:39:04;13.80;99.90
28171;DHT22;15458;53.346;-1.688;2023-08-01T07:41:30;13.80;99.90
28171;DHT22;15458;53.346;-1.688;2023-08-01T07:44:02;13.90;99.90
28171;DHT22;15458;53.346;-1.688;2023-08-01T07:46:29;13.90;99.90
28171;DHT22;15458;53.346;-1.688;2023-08-01T07:48:55;13.90;99.90
28171;DHT22;15458;53.346;-1.688;2023-08-01T07:51:21;13.90;99.90
28171;DHT22;15458;53.346;-1.688;2023-08-01T07:53:47;13.90;99.90
28171;DHT22;15458;53.346;-1.688;2023-08-01T07:56:12;13.90;99.90
28171;DHT22;15458;53.346;-1.688;2023-08-01T07:58:39;14.00;99.90
28171;DHT22;15458;53.346;-1.688;2023-08-01T08:01:07;14.00;99.90
28171;DHT22;15458;53.346;-1.688;2023-08-01T08:03:32;14.00;99.90
28171;DHT22;15458;53.346;-1.688;2023-08-01T08:05:58;14.00;99.90
28171;DHT22;15458;53.346;-1.688;2023-08-01T08:08:24;14.00;99.90
28171;DHT22;15458;53.346;-1.688;2023-08-01T08:10:50;14.00;99.90
28171;DHT22;15458;53.346;-1.688;2023-08-01T08:13:16;14.00;99.90
28171;DHT22;15458;53.346;-1.688;2023-08-01T08:15:41;14.00;99.90
28171;DHT22;15458;53.346;-1.688;2023-08-01T08:18:07;14.00;99.90
28171;DHT22;15458;53.346;-1.688;2023-08-01T08:20:44;14.10;99.90
28171;DHT22;15458;53.346;-1.688;2023-08-01T08:23:10;14.10;99.90
28171;DHT22;15458;53.346;-1.688;2023-08-01T08:25:36;14.10;99.90
28171;DHT22;15458;53.346;-1.688;2023-08-01T08:28:02;14.10;99.90
28171;DHT22;15458;53.346;-1.688;2023-08-01T08:30:28;14.10;99.90
28171;DHT22;15458;53.346;-1.688;2023-08-01T08:32:53;14.20;99.90
28171;DHT22;15458;53.346;-1.688;2023-08-01T08:35:19;14.20;99.90
28171;DHT22;15458;53.346;-1.688;2023-08-01T08:37:45;14.10;99.90
28171;DHT22;15458;53.346;-1.688;2023-08-01T08:40:12;14.20;99.90
28171;DHT22;15458;53.346;-1.688;2023-08-01T08:42:39;14.20;99.90
28171;DHT22;15458;53.346;-1.688;2023-08-01T08:45:06;14.10;99.90
28171;DHT22;15458;53.346;-1.688;2023-08-01T08:47:36;14.10;99.90
28171;DHT22;15458;53.346;-1.688;2023-08-01T08:50:02;14.10;99.90
28171;DHT22;15458;53.346;-1.688;2023-08-01T08:52:27;14.10;99.90
28171;DHT22;15458;53.346;-1.688;2023-08-01T08:54:53;14.10;99.90
28171;DHT22;15458;53.346;-1.688;2023-08-01T08:57:20;14.10;99.90
28171;DHT22;15458;53.346;-1.688;2023-08-01T08:59:47;14.00;99.90
28171;DHT22;15458;53.346;-1.688;2023-08-01T09:02:15;14.00;99.90
28171;DHT22;15458;53.346;-1.688;2023-08-01T09:04:41;14.00;99.90
28171;DHT22;15458;53.346;-1.688;2023-08-01T09:07:09;14.00;99.90
28171;DHT22;15458;53.346;-1.688;2023-08-01T09:09:37;14.00;99.90
28171;DHT22;15458;53.346;-1.688;2023-08-01T09:12:03;14.00;99.90
28171;DHT22;15458;53.346;-1.688;2023-08-01T09:14:29;14.00;99.90
28171;DHT22;15458;53.346;-1.688;2023-08-01T09:16:55;14.00;99.90
28171;DHT22;15458;53.346;-1.688;2023-08-01T09:19:22;14.00;99.90
28171;DHT22;15458;53.346;-1.688;2023-08-01T09:21:50;14.00;99.90
28171;DHT22;15458;53.346;-1.688;2023-08-01T09:24:20;14.00;99.90
28171;DHT22;15458;53.346;-1.688;2023-08-01T09:26:48;14.10;99.90
28171;DHT22;15458;53.346;-1.688;2023-08-01T09:29:17;14.10;99.90
28171;DHT22;15458;53.346;-1.688;2023-08-01T09:31:43;14.10;99.90
28171;DHT22;15458;53.346;-1.688;2023-08-01T09:34:23;14.10;99.90
28171;DHT22;15458;53.346;-1.688;2023-08-01T09:36:50;14.20;99.90
28171;DHT22;15458;53.346;-1.688;2023-08-01T09:39:20;14.20;99.90
28171;DHT22;15458;53.346;-1.688;2023-08-01T09:41:57;14.20;99.90
28171;DHT22;15458;53.346;-1.688;2023-08-01T09:44:23;14.20;99.90
28171;DHT22;15458;53.346;-1.688;2023-08-01T09:47:03;14.20;99.90
28171;DHT22;15458;53.346;-1.688;2023-08-01T09:49:30;14.20;99.90
28171;DHT22;15458;53.346;-1.688;2023-08-01T09:51:57;14.30;99.90
28171;DHT22;15458;53.346;-1.688;2023-08-01T09:54:24;14.30;99.90
28171;DHT22;15458;53.346;-1.688;2023-08-01T09:56:51;14.40;99.90
28171;DHT22;15458;53.346;-1.688;2023-08-01T09:59:25;14.50;99.90
28171;DHT22;15458;53.346;-1.688;2023-08-01T10:01:53;14.60;99.90
28171;DHT22;15458;53.346;-1.688;2023-08-01T10:04:29;14.70;99.90
28171;DHT22;15458;53.346;-1.688;2023-08-01T10:06:59;14.70;99.90
28171;DHT22;15458;53.346;-1.688;2023-08-01T10:09:27;14.80;99.90
28171;DHT22;15458;53.346;-1.688;2023-08-01T10:11:57;14.90;99.90
28171;DHT22;15458;53.346;-1.688;2023-08-01T10:14:23;15.00;99.90
28171;DHT22;15458;53.346;-1.688;2023-08-01T10:16:49;15.00;99.90
28171;DHT22;15458;53.346;-1.688;2023-08-01T10:19:17;15.10;99.90
28171;DHT22;15458;53.346;-1.688;2023-08-01T10:21:44;15.30;99.90
28171;DHT22;15458;53.346;-1.688;2023-08-01T10:24:12;15.40;99.90
28171;DHT22;15458;53.346;-1.688;2023-08-01T10:26:38;15.50;99.90
28171;DHT22;15458;53.346;-1.688;2023-08-01T10:29:04;15.50;99.90
28171;DHT22;15458;53.346;-1.688;2023-08-01T10:31:30;15.60;99.90
28171;DHT22;15458;53.346;-1.688;2023-08-01T10:34:12;15.60;99.90
28171;DHT22;15458;53.346;-1.688;2023-08-01T10:36:38;15.70;99.90
28171;DHT22;15458;53.346;-1.688;2023-08-01T10:39:04;15.80;99.90
28171;DHT22;15458;53.346;-1.688;2023-08-01T10:41:36;15.90;99.90
28171;DHT22;15458;53.346;-1.688;2023-08-01T10:44:15;16.00;99.90
28171;DHT22;15458;53.346;-1.688;2023-08-01T10:46:55;16.00;99.90
28171;DHT22;15458;53.346;-1.688;2023-08-01T10:49:34;16.00;99.90
28171;DHT22;15458;53.346;-1.688;2023-08-01T10:52:02;16.00;99.90
28171;DHT22;15458;53.346;-1.688;2023-08-01T10:54:29;15.90;99.90
28171;DHT22;15458;53.346;-1.688;2023-08-01T10:56:56;15.90;99.90
28171;DHT22;15458;53.346;-1.688;2023-08-01T10:59:25;15.80;99.90
28171;DHT22;15458;53.346;-1.688;2023-08-01T11:01:58;15.70;99.90
28171;DHT22;15458;53.346;-1.688;2023-08-01T11:04:24;15.60;99.90
28171;DHT22;15458;53.346;-1.688;2023-08-01T11:06:52;15.60;99.90
28171;DHT22;15458;53.346;-1.688;2023-08-01T11:09:25;15.60;99.90
28171;DHT22;15458;53.346;-1.688;2023-08-01T11:11:56;15.60;99.90
28171;DHT22;15458;53.346;-1.688;2023-08-01T11:14:23;15.70;99.90
28171;DHT22;15458;53.346;-1.688;2023-08-01T11:16:50;15.80;99.90
28171;DHT22;15458;53.346;-1.688;2023-08-01T11:19:26;16.10;99.90
28171;DHT22;15458;53.346;-1.688;2023-08-01T11:21:53;16.40;99.90
28171;DHT22;15458;53.346;-1.688;2023-08-01T11:24:21;16.80;99.90
28171;DHT22;15458;53.346;-1.688;2023-08-01T11:26:48;17.20;99.90
28171;DHT22;15458;53.346;-1.688;2023-08-01T11:29:15;17.40;99.90
28171;DHT22;15458;53.346;-1.688;2023-08-01T11:31:46;17.80;99.90
28171;DHT22;15458;53.346;-1.688;2023-08-01T11:34:19;18.10;99.90
28171;DHT22;15458;53.346;-1.688;2023-08-01T11:36:44;18.30;99.90
28171;DHT22;15458;53.346;-1.688;2023-08-01T11:39:12;18.30;99.90
28171;DHT22;15458;53.346;-1.688;2023-08-01T11:41:38;18.20;99.90
28171;DHT22;15458;53.346;-1.688;2023-08-01T11:44:04;18.10;99.90
28171;DHT22;15458;53.346;-1.688;2023-08-01T11:46:34;18.00;99.90
28171;DHT22;15458;53.346;-1.688;2023-08-01T11:49:01;17.80;99.90
28171;DHT22;15458;53.346;-1.688;2023-08-01T11:51:28;17.60;99.90
28171;DHT22;15458;53.346;-1.688;2023-08-01T11:54:04;17.50;99.90
28171;DHT22;15458;53.346;-1.688;2023-08-01T11:56:31;17.40;99.90
28171;DHT22;15458;53.346;-1.688;2023-08-01T11:58:57;17.40;99.90
28171;DHT22;15458;53.346;-1.688;2023-08-01T12:01:23;17.60;99.90
28171;DHT22;15458;53.346;-1.688;2023-08-01T12:03:55;17.90;99.90
28171;DHT22;15458;53.346;-1.688;2023-08-01T12:06:23;18.30;99.90
28171;DHT22;15458;53.346;-1.688;2023-08-01T12:08:52;18.60;99.90
28171;DHT22;15458;53.346;-1.688;2023-08-01T12:11:25;18.80;99.90
28171;DHT22;15458;53.346;-1.688;2023-08-01T12:16:26;19.10;99.90
28171;DHT22;15458;53.346;-1.688;2023-08-01T12:18:51;19.10;99.90
28171;DHT22;15458;53.346;-1.688;2023-08-01T12:21:17;19.20;99.90
28171;DHT22;15458;53.346;-1.688;2023-08-01T12:23:43;19.30;99.90
28171;DHT22;15458;53.346;-1.688;2023-08-01T12:26:08;19.30;99.90
28171;DHT22;15458;53.346;-1.688;2023-08-01T12:28:35;19.10;99.90
28171;DHT22;15458;53.346;-1.688;2023-08-01T12:31:00;19.00;99.90
28171;DHT22;15458;53.346;-1.688;2023-08-01T12:33:26;18.90;99.90
28171;DHT22;15458;53.346;-1.688;2023-08-01T12:35:52;18.80;99.90
28171;DHT22;15458;53.346;-1.688;2023-08-01T12:38:17;18.80;99.90
28171;DHT22;15458;53.346;-1.688;2023-08-01T12:40:43;18.70;99.90
28171;DHT22;15458;53.346;-1.688;2023-08-01T12:43:09;18.60;99.90
28171;DHT22;15458;53.346;-1.688;2023-08-01T12:45:34;18.60;99.90
28171;DHT22;15458;53.346;-1.688;2023-08-01T12:48:00;18.70;99.90
28171;DHT22;15458;53.346;-1.688;2023-08-01T12:50:27;18.90;99.90
28171;DHT22;15458;53.346;-1.688;2023-08-01T12:52:52;19.10;99.90
28171;DHT22;15458;53.346;-1.688;2023-08-01T12:55:18;19.10;99.90
28171;DHT22;15458;53.346;-1.688;2023-08-01T12:57:44;19.10;99.90
28171;DHT22;15458;53.346;-1.688;2023-08-01T13:00:10;19.10;99.90
28171;DHT22;15458;53.346;-1.688;2023-08-01T13:02:37;19.10;99.90
28171;DHT22;15458;53.346;-1.688;2023-08-01T13:05:06;18.90;99.90
28171;DHT22;15458;53.346;-1.688;2023-08-01T13:07:32;18.90;99.90
28171;DHT22;15458;53.346;-1.688;2023-08-01T13:09:58;18.90;99.90
28171;DHT22;15458;53.346;-1.688;2023-08-01T13:12:25;18.90;99.90
28171;DHT22;15458;53.346;-1.688;2023-08-01T13:14:50;18.90;99.90
28171;DHT22;15458;53.346;-1.688;2023-08-01T13:17:16;18.80;99.90
28171;DHT22;15458;53.346;-1.688;2023-08-01T13:19:42;18.80;99.90
28171;DHT22;15458;53.346;-1.688;2023-08-01T13:22:07;18.70;99.90
28171;DHT22;15458;53.346;-1.688;2023-08-01T13:24:33;18.60;99.90
28171;DHT22;15458;53.346;-1.688;2023-08-01T13:26:58;18.60;99.90
28171;DHT22;15458;53.346;-1.688;2023-08-01T13:29:24;18.70;99.90
28171;DHT22;15458;53.346;-1.688;2023-08-01T13:31:50;18.80;99.90
28171;DHT22;15458;53.346;-1.688;2023-08-01T13:34:15;19.00;99.90
28171;DHT22;15458;53.346;-1.688;2023-08-01T13:36:43;19.10;99.90
28171;DHT22;15458;53.346;-1.688;2023-08-01T13:39:08;19.30;99.90
28171;DHT22;15458;53.346;-1.688;2023-08-01T13:41:35;19.40;99.90
28171;DHT22;15458;53.346;-1.688;2023-08-01T13:44:01;19.40;99.90
28171;DHT22;15458;53.346;-1.688;2023-08-01T13:46:28;19.50;99.90
28171;DHT22;15458;53.346;-1.688;2023-08-01T13:48:54;19.80;99.60
28171;DHT22;15458;53.346;-1.688;2023-08-01T13:51:20;20.00;98.30
28171;DHT22;15458;53.346;-1.688;2023-08-01T13:53:46;20.00;97.60
28171;DHT22;15458;53.346;-1.688;2023-08-01T13:56:11;20.00;97.10
28171;DHT22;15458;53.346;-1.688;2023-08-01T13:58:38;19.90;96.30
28171;DHT22;15458;53.346;-1.688;2023-08-01T14:01:05;19.80;96.10
28171;DHT22;15458;53.346;-1.688;2023-08-01T14:03:33;19.70;96.50
28171;DHT22;15458;53.346;-1.688;2023-08-01T14:06:09;19.70;96.60
28171;DHT22;15458;53.346;-1.688;2023-08-01T14:08:35;19.50;95.70
28171;DHT22;15458;53.346;-1.688;2023-08-01T14:11:05;19.40;95.70
28171;DHT22;15458;53.346;-1.688;2023-08-01T14:13:32;19.30;95.00
28171;DHT22;15458;53.346;-1.688;2023-08-01T14:15:58;19.30;95.00
28171;DHT22;15458;53.346;-1.688;2023-08-01T14:18:24;19.30;95.40
28171;DHT22;15458;53.346;-1.688;2023-08-01T14:20:50;19.40;95.70
28171;DHT22;15458;53.346;-1.688;2023-08-01T14:23:17;19.60;95.90
28171;DHT22;15458;53.346;-1.688;2023-08-01T14:25:42;19.60;95.60
28171;DHT22;15458;53.346;-1.688;2023-08-01T14:28:09;19.70;95.60
28171;DHT22;15458;53.346;-1.688;2023-08-01T14:30:34;19.70;95.30
28171;DHT22;15458;53.346;-1.688;2023-08-01T14:33:05;19.50;95.40
28171;DHT22;15458;53.346;-1.688;2023-08-01T14:35:31;19.50;95.90
28171;DHT22;15458;53.346;-1.688;2023-08-01T14:37:57;19.30;96.30
28171;DHT22;15458;53.346;-1.688;2023-08-01T14:40:23;19.30;96.80
28171;DHT22;15458;53.346;-1.688;2023-08-01T14:42:49;19.10;97.20
28171;DHT22;15458;53.346;-1.688;2023-08-01T14:45:15;19.10;98.00
28171;DHT22;15458;53.346;-1.688;2023-08-01T14:47:42;19.00;98.30
28171;DHT22;15458;53.346;-1.688;2023-08-01T14:50:12;18.90;98.30
28171;DHT22;15458;53.346;-1.688;2023-08-01T14:52:38;18.80;98.50
28171;DHT22;15458;53.346;-1.688;2023-08-01T14:55:04;18.80;98.80
28171;DHT22;15458;53.346;-1.688;2023-08-01T14:57:30;18.70;99.10
28171;DHT22;15458;53.346;-1.688;2023-08-01T14:59:56;18.80;99.50
28171;DHT22;15458;53.346;-1.688;2023-08-01T15:02:22;18.80;99.60
28171;DHT22;15458;53.346;-1.688;2023-08-01T15:04:52;19.00;99.90
28171;DHT22;15458;53.346;-1.688;2023-08-01T15:07:18;19.20;99.90
28171;DHT22;15458;53.346;-1.688;2023-08-01T15:09:44;19.60;99.90
28171;DHT22;15458;53.346;-1.688;2023-08-01T15:12:11;20.00;99.10
28171;DHT22;15458;53.346;-1.688;2023-08-01T15:14:37;20.40;97.70